createdAt,value
2022-12-22T00:01:33.462Z,6.90
2022-12-22T00:04:21.270Z,6.90
2022-12-22T00:07:07.556Z,6.90
2022-12-22T00:09:53.824Z,6.90
2022-12-22T00:12:39.981Z,6.90
2022-12-22T00:15:31.674Z,6.90
2022-12-22T00:18:17.776Z,6.90
2022-12-22T00:21:05.851Z,6.90
2022-12-22T00:23:52.606Z,6.90
2022-12-22T00:26:38.745Z,6.90
2022-12-22T00:29:25.165Z,6.90
2022-12-22T00:32:11.311Z,6.90
2022-12-22T00:35:00.867Z,6.90
2022-12-22T00:37:53.430Z,7.00
2022-12-22T00:40:42.039Z,7.00
2022-12-22T00:43:28.364Z,7.00
2022-12-22T00:46:14.991Z,7.00
2022-12-22T00:49:02.833Z,7.00
2022-12-22T00:51:49.898Z,7.10
2022-12-22T00:54:39.312Z,7.10
2022-12-22T00:57:27.397Z,7.20
2022-12-22T01:00:15.833Z,7.20
2022-12-22T01:03:02.102Z,7.20
2022-12-22T01:05:48.743Z,7.20
2022-12-22T01:08:34.699Z,7.20
2022-12-22T01:11:22.500Z,7.30
2022-12-22T01:14:08.783Z,7.30
2022-12-22T01:16:55.088Z,7.30
2022-12-22T01:19:41.579Z,7.20
2022-12-22T01:22:30.363Z,7.30
2022-12-22T01:25:16.636Z,7.30
2022-12-22T01:28:03.938Z,7.30
2022-12-22T01:30:50.258Z,7.30
2022-12-22T01:33:36.572Z,7.30
2022-12-22T01:36:23.325Z,7.40
2022-12-22T01:39:09.092Z,7.40
2022-12-22T01:41:55.479Z,7.40
2022-12-22T01:44:43.265Z,7.50
2022-12-22T01:47:50.418Z,7.50
2022-12-22T01:50:46.643Z,7.50
2022-12-22T01:53:36.991Z,7.50
2022-12-22T01:56:23.594Z,7.50
2022-12-22T01:59:13.574Z,7.60
2022-12-22T02:02:02.539Z,7.60
2022-12-22T02:04:53.745Z,7.60
2022-12-22T02:07:51.313Z,7.60
2022-12-22T02:10:52.557Z,7.60
2022-12-22T02:13:46.649Z,7.60
2022-12-22T02:16:40.250Z,7.60
2022-12-22T02:19:38.188Z,7.60
2022-12-22T02:22:31.418Z,7.50
2022-12-22T02:25:21.654Z,7.60
2022-12-22T02:28:12.375Z,7.60
2022-12-22T02:31:00.076Z,7.60
2022-12-22T02:33:46.257Z,7.60
2022-12-22T02:36:39.548Z,7.60
2022-12-22T02:39:30.891Z,7.60
2022-12-22T02:42:27.777Z,7.60
2022-12-22T02:45:26.412Z,7.60
2022-12-22T02:48:22.548Z,7.70
2022-12-22T02:51:13.562Z,7.70
2022-12-22T02:53:59.902Z,7.70
2022-12-22T02:56:46.164Z,7.70
2022-12-22T02:59:31.880Z,7.60
2022-12-22T03:02:19.690Z,7.60
2022-12-22T03:05:05.912Z,7.60
2022-12-22T03:07:52.240Z,7.60
2022-12-22T03:10:38.676Z,7.60
2022-12-22T03:13:24.246Z,7.60
2022-12-22T03:16:11.398Z,7.60
2022-12-22T03:19:05.170Z,7.50
2022-12-22T03:21:51.425Z,7.60
2022-12-22T03:24:37.547Z,7.50
2022-12-22T03:27:06.243Z,7.50
2022-12-22T03:29:34.931Z,7.50
2022-12-22T03:32:03.608Z,7.50
2022-12-22T03:34:33.730Z,7.50
2022-12-22T03:37:02.438Z,7.50
2022-12-22T03:39:31.136Z,7.60
2022-12-22T03:42:16.726Z,7.60
2022-12-22T03:45:03.050Z,7.60
2022-12-22T03:47:33.081Z,7.70
2022-12-22T03:50:03.399Z,7.70
2022-12-22T03:52:32.039Z,7.70
2022-12-22T03:55:00.683Z,7.80
2022-12-22T03:57:29.362Z,7.80
2022-12-22T03:59:58.069Z,7.90
2022-12-22T04:02:26.904Z,7.80
2022-12-22T04:04:55.741Z,7.80
2022-12-22T04:07:25.798Z,7.90
2022-12-22T04:10:08.138Z,7.90
2022-12-22T04:12:54.503Z,7.90
2022-12-22T04:15:23.479Z,7.90
2022-12-22T04:17:52.554Z,7.90
2022-12-22T04:20:22.542Z,7.80
2022-12-22T04:22:52.719Z,7.80
2022-12-22T04:25:21.373Z,7.90
2022-12-22T04:27:50.221Z,7.80
2022-12-22T04:30:19.660Z,7.90
2022-12-22T04:32:48.539Z,7.90
2022-12-22T04:35:17.198Z,7.90
2022-12-22T04:37:45.920Z,7.90
2022-12-22T04:40:16.132Z,7.90
2022-12-22T04:42:44.800Z,7.90
2022-12-22T04:45:13.471Z,7.90
2022-12-22T04:47:42.254Z,8.00
2022-12-22T04:50:11.964Z,8.00
2022-12-22T04:52:40.700Z,8.00
2022-12-22T04:55:10.648Z,8.00
2022-12-22T04:57:41.324Z,8.00
2022-12-22T05:00:11.421Z,8.10
2022-12-22T05:02:40.281Z,8.10
2022-12-22T05:05:10.300Z,8.10
2022-12-22T05:07:38.921Z,8.10
2022-12-22T05:10:08.560Z,8.10
2022-12-22T05:12:54.795Z,8.10
2022-12-22T05:15:26.779Z,8.10
2022-12-22T05:17:55.715Z,8.10
2022-12-22T05:20:25.350Z,8.10
2022-12-22T05:22:54.104Z,8.00
2022-12-22T05:25:23.105Z,8.00
2022-12-22T05:27:52.543Z,8.00
2022-12-22T05:30:21.932Z,7.90
2022-12-22T05:32:52.199Z,7.80
2022-12-22T05:35:21.065Z,7.80
2022-12-22T05:37:49.705Z,7.80
2022-12-22T05:40:18.573Z,7.80
2022-12-22T05:42:47.393Z,7.90
2022-12-22T05:45:18.025Z,7.90
2022-12-22T05:47:48.820Z,8.00
2022-12-22T05:50:20.564Z,8.00
2022-12-22T05:52:59.119Z,8.10
2022-12-22T05:55:27.893Z,8.10
2022-12-22T05:57:57.196Z,8.10
2022-12-22T06:00:26.249Z,8.10
2022-12-22T06:02:55.070Z,8.20
2022-12-22T06:05:25.659Z,8.20
2022-12-22T06:07:54.312Z,8.20
2022-12-22T06:10:23.025Z,8.30
2022-12-22T06:12:52.824Z,8.30
2022-12-22T06:15:21.481Z,8.30
2022-12-22T06:17:50.435Z,8.30
2022-12-22T06:20:19.275Z,8.30
2022-12-22T06:22:49.387Z,8.30
2022-12-22T06:25:19.068Z,8.30
2022-12-22T06:27:48.165Z,8.30
2022-12-22T06:30:21.950Z,8.30
2022-12-22T06:32:58.801Z,8.30
2022-12-22T06:35:27.454Z,8.30
2022-12-22T06:37:57.655Z,8.30
2022-12-22T06:40:26.347Z,8.30
2022-12-22T06:43:09.623Z,8.30
2022-12-22T06:45:40.367Z,8.30
2022-12-22T06:48:10.077Z,8.30
2022-12-22T06:51:04.789Z,8.30
2022-12-22T06:53:35.885Z,8.30
2022-12-22T06:56:04.616Z,8.30
2022-12-22T06:58:33.189Z,8.30
2022-12-22T07:01:01.793Z,8.40
2022-12-22T07:03:33.984Z,8.30
2022-12-22T07:06:04.823Z,8.30
2022-12-22T07:08:33.475Z,8.30
2022-12-22T07:11:03.779Z,8.40
2022-12-22T07:13:34.257Z,8.40
2022-12-22T07:16:03.398Z,8.30
2022-12-22T07:18:33.876Z,8.30
2022-12-22T07:21:04.548Z,8.30
2022-12-22T07:23:34.110Z,8.20
2022-12-22T07:26:05.460Z,8.20
2022-12-22T07:28:40.565Z,8.20
2022-12-22T07:31:09.701Z,8.20
2022-12-22T07:33:38.703Z,8.20
2022-12-22T07:36:09.923Z,8.20
2022-12-22T07:38:40.834Z,8.20
2022-12-22T07:41:26.344Z,8.30
2022-12-22T07:43:55.762Z,8.30
2022-12-22T07:46:25.444Z,8.30
2022-12-22T07:49:11.583Z,8.30
2022-12-22T07:51:42.007Z,8.40
2022-12-22T07:54:12.655Z,8.40
2022-12-22T07:56:43.779Z,8.40
2022-12-22T07:59:13.214Z,8.40
2022-12-22T08:01:42.459Z,8.50
2022-12-22T08:04:11.915Z,8.50
2022-12-22T08:06:40.693Z,8.60
2022-12-22T08:09:10.855Z,8.60
2022-12-22T08:11:39.639Z,8.60
2022-12-22T08:14:10.355Z,8.80
2022-12-22T08:16:39.049Z,8.90
2022-12-22T08:19:07.949Z,8.90
2022-12-22T08:21:36.625Z,9.10
2022-12-22T08:24:05.555Z,9.20
2022-12-22T08:26:38.383Z,9.40
2022-12-22T08:29:13.735Z,9.50
2022-12-22T08:31:43.083Z,9.60
2022-12-22T08:34:16.106Z,9.70
2022-12-22T08:36:49.440Z,9.70
2022-12-22T08:39:19.788Z,9.70
2022-12-22T08:41:51.664Z,9.70
2022-12-22T08:44:23.775Z,9.70
2022-12-22T08:46:53.495Z,9.70
2022-12-22T08:49:22.680Z,9.80
2022-12-22T08:51:52.236Z,9.70
2022-12-22T08:54:21.775Z,9.70
2022-12-22T08:56:50.901Z,9.70
2022-12-22T08:59:19.681Z,9.80
2022-12-22T09:01:51.265Z,9.80
2022-12-22T09:04:22.909Z,9.90
2022-12-22T09:06:54.078Z,10.00
2022-12-22T09:09:22.924Z,10.10
2022-12-22T09:11:52.018Z,10.20
2022-12-22T09:14:20.610Z,10.20
2022-12-22T09:16:51.287Z,10.30
2022-12-22T09:19:48.892Z,10.30
2022-12-22T09:22:21.766Z,10.30
2022-12-22T09:24:53.757Z,10.30
2022-12-22T09:27:22.481Z,10.30
2022-12-22T09:29:51.101Z,10.30
2022-12-22T09:32:21.224Z,10.30
2022-12-22T09:34:50.139Z,10.40
2022-12-22T09:37:18.921Z,10.50
2022-12-22T09:39:47.671Z,10.50
2022-12-22T09:42:19.300Z,10.70
2022-12-22T09:44:52.010Z,10.80
2022-12-22T09:47:26.545Z,11.00
2022-12-22T09:49:58.353Z,11.10
2022-12-22T09:52:45.593Z,11.30
2022-12-22T09:55:21.060Z,11.40
2022-12-22T09:57:49.711Z,11.50
2022-12-22T10:00:21.323Z,11.60
2022-12-22T10:02:59.265Z,11.60
2022-12-22T10:05:38.664Z,11.70
2022-12-22T10:08:13.002Z,11.80
2022-12-22T10:10:42.181Z,11.90
2022-12-22T10:13:18.377Z,11.90
2022-12-22T10:15:47.528Z,12.00
2022-12-22T10:18:18.914Z,12.00
2022-12-22T10:21:07.392Z,12.00
2022-12-22T10:23:38.840Z,12.10
2022-12-22T10:26:29.761Z,12.40
2022-12-22T10:29:02.502Z,12.60
2022-12-22T10:31:32.287Z,12.70
2022-12-22T10:34:14.349Z,12.80
2022-12-22T10:36:48.458Z,12.80
2022-12-22T10:39:22.945Z,12.70
2022-12-22T10:41:55.474Z,12.60
2022-12-22T10:44:29.930Z,12.60
2022-12-22T10:47:01.506Z,12.50
2022-12-22T10:52:16.016Z,12.30
2022-12-22T10:54:46.444Z,12.20
2022-12-22T10:57:30.273Z,12.10
2022-12-22T11:00:00.958Z,12.00
2022-12-22T11:02:37.962Z,11.90
2022-12-22T11:05:10.570Z,11.90
2022-12-22T11:07:41.836Z,11.80
2022-12-22T11:10:25.254Z,11.90
2022-12-22T11:13:19.932Z,12.00
2022-12-22T11:15:55.737Z,12.40
2022-12-22T11:18:42.985Z,12.70
2022-12-22T11:21:24.409Z,12.90
2022-12-22T11:24:03.077Z,13.00
2022-12-22T11:26:43.472Z,13.20
2022-12-22T11:29:34.663Z,13.40
2022-12-22T11:32:22.404Z,13.40
2022-12-22T11:35:00.494Z,13.40
2022-12-22T11:37:38.030Z,13.30
2022-12-22T11:40:15.697Z,13.30
2022-12-22T11:42:58.900Z,13.20
2022-12-22T11:45:46.900Z,13.20
2022-12-22T11:48:34.559Z,12.90
2022-12-22T11:51:11.222Z,12.60
2022-12-22T11:54:12.923Z,12.30
2022-12-22T11:56:42.746Z,12.10
2022-12-22T11:59:27.312Z,11.90
2022-12-22T12:02:12.784Z,11.80
2022-12-22T12:05:24.470Z,11.60
2022-12-22T12:07:59.510Z,11.60
2022-12-22T12:10:33.390Z,11.50
2022-12-22T12:13:10.763Z,11.50
2022-12-22T12:15:46.320Z,11.40
2022-12-22T12:18:48.310Z,11.30
2022-12-22T12:21:27.406Z,11.30
2022-12-22T12:24:21.929Z,11.20
2022-12-22T12:27:02.183Z,11.10
2022-12-22T12:29:38.879Z,11.00
2022-12-22T12:32:19.735Z,11.00
2022-12-22T12:35:04.912Z,11.00
2022-12-22T12:37:39.570Z,10.90
2022-12-22T12:40:30.320Z,10.90
2022-12-22T12:43:02.227Z,10.70
2022-12-22T12:45:36.033Z,10.60
2022-12-22T12:48:40.367Z,10.50
2022-12-22T12:51:47.415Z,10.40
2022-12-22T12:54:38.549Z,10.30
2022-12-22T12:57:25.457Z,10.20
2022-12-22T12:59:58.437Z,10.20
2022-12-22T13:02:39.201Z,10.20
2022-12-22T13:05:33.245Z,10.30
2022-12-22T13:08:19.776Z,10.30
2022-12-22T13:11:52.665Z,10.30
2022-12-22T13:14:11.006Z,10.40
2022-12-22T13:16:41.872Z,10.40
2022-12-22T13:19:23.174Z,10.30
2022-12-22T13:21:53.943Z,10.30
2022-12-22T13:24:28.954Z,10.40
2022-12-22T13:27:04.603Z,10.40
2022-12-22T13:29:43.048Z,10.50
2022-12-22T13:32:24.899Z,10.50
2022-12-22T13:37:55.089Z,10.70
2022-12-22T13:40:26.529Z,10.70
2022-12-22T13:42:58.366Z,10.80
2022-12-22T13:45:35.410Z,10.80
2022-12-22T13:48:10.558Z,10.80
2022-12-22T13:50:43.516Z,10.80
2022-12-22T13:53:41.504Z,10.90
2022-12-22T13:56:07.522Z,10.90
2022-12-22T13:58:39.275Z,10.90
2022-12-22T14:01:18.509Z,10.90
2022-12-22T14:04:00.325Z,10.90
2022-12-22T14:06:31.488Z,10.90
2022-12-22T14:09:18.414Z,10.90
2022-12-22T14:11:52.525Z,10.90
2022-12-22T14:14:25.854Z,10.90
2022-12-22T14:17:02.262Z,11.00
2022-12-22T14:19:36.207Z,10.90
2022-12-22T14:22:09.777Z,10.90
2022-12-22T14:24:44.250Z,10.90
2022-12-22T14:27:20.351Z,10.90
2022-12-22T14:29:49.357Z,10.90
2022-12-22T14:32:40.500Z,10.80
2022-12-22T14:35:25.801Z,10.80
2022-12-22T14:37:57.463Z,10.80
2022-12-22T14:40:36.056Z,10.70
2022-12-22T14:43:07.036Z,10.70
2022-12-22T14:45:35.984Z,10.70
2022-12-22T14:48:12.495Z,10.60
2022-12-22T14:50:50.211Z,10.60
2022-12-22T14:53:25.846Z,10.60
2022-12-22T14:55:55.318Z,10.60
2022-12-22T14:58:28.931Z,10.60
2022-12-22T15:01:17.761Z,10.60
2022-12-22T15:03:57.706Z,10.60
2022-12-22T15:06:37.487Z,10.60
2022-12-22T15:10:13.252Z,10.50
2022-12-22T15:12:20.712Z,10.60
2022-12-22T15:14:50.263Z,10.50
2022-12-22T15:17:24.242Z,10.50
2022-12-22T15:19:59.037Z,10.40
2022-12-22T15:22:30.488Z,10.40
2022-12-22T15:24:59.210Z,10.40
2022-12-22T15:27:33.399Z,10.30
2022-12-22T15:30:27.253Z,10.20
2022-12-22T15:32:57.387Z,10.10
2022-12-22T15:35:29.521Z,10.00
2022-12-22T15:38:02.653Z,9.90
2022-12-22T15:40:31.305Z,9.90
2022-12-22T15:42:59.915Z,9.90
2022-12-22T15:45:28.683Z,9.90
2022-12-22T15:47:57.484Z,9.80
2022-12-22T15:50:36.664Z,9.80
2022-12-22T15:53:10.133Z,9.70
2022-12-22T15:55:43.650Z,9.70
2022-12-22T15:58:14.422Z,9.70
2022-12-22T16:00:43.256Z,9.60
2022-12-22T16:03:18.133Z,9.50
2022-12-22T16:05:48.290Z,9.50
2022-12-22T16:08:22.086Z,9.40
2022-12-22T16:10:51.336Z,9.40
2022-12-22T16:13:23.147Z,9.40
2022-12-22T16:15:51.961Z,9.40
2022-12-22T16:18:21.062Z,9.30
2022-12-22T16:20:51.469Z,9.30
2022-12-22T16:23:24.382Z,9.30
2022-12-22T16:26:01.403Z,9.30
2022-12-22T16:28:31.139Z,9.20
2022-12-22T16:31:00.809Z,9.20
2022-12-22T16:33:30.748Z,9.20
2022-12-22T16:35:59.419Z,9.20
2022-12-22T16:38:29.542Z,9.20
2022-12-22T16:41:03.578Z,9.10
2022-12-22T16:43:51.754Z,9.20
2022-12-22T16:46:22.560Z,9.10
2022-12-22T16:48:54.209Z,9.10
2022-12-22T16:51:25.566Z,9.10
2022-12-22T16:53:55.662Z,9.10
2022-12-22T16:56:26.974Z,9.10
2022-12-22T16:58:56.079Z,9.10
2022-12-22T17:01:38.474Z,9.10
2022-12-22T17:04:12.589Z,9.10
2022-12-22T17:06:42.246Z,9.10
2022-12-22T17:09:18.645Z,9.10
2022-12-22T17:11:51.543Z,9.10
2022-12-22T17:14:28.958Z,9.10
2022-12-22T17:16:58.513Z,9.10
2022-12-22T17:19:29.276Z,9.10
2022-12-22T17:22:00.292Z,9.10
2022-12-22T17:24:32.480Z,9.10
2022-12-22T17:27:05.036Z,9.10
2022-12-22T17:29:35.278Z,9.10
2022-12-22T17:32:03.969Z,9.10
2022-12-22T17:34:33.343Z,9.20
2022-12-22T17:37:02.215Z,9.20
2022-12-22T17:39:34.008Z,9.20
2022-12-22T17:42:02.612Z,9.20
2022-12-22T17:44:31.255Z,9.10
2022-12-22T17:47:00.094Z,9.10
2022-12-22T17:49:28.885Z,9.10
2022-12-22T17:51:57.920Z,9.00
2022-12-22T17:54:28.020Z,9.00
2022-12-22T17:57:03.062Z,9.00
2022-12-22T17:59:32.103Z,9.00
2022-12-22T18:02:01.628Z,9.00
2022-12-22T18:04:30.376Z,9.00
2022-12-22T18:06:59.791Z,9.00
2022-12-22T18:09:28.624Z,9.10
2022-12-22T18:11:58.778Z,9.10
2022-12-22T18:14:27.720Z,9.20
2022-12-22T18:16:56.399Z,9.20
2022-12-22T18:19:25.032Z,9.20
2022-12-22T18:21:53.769Z,9.20
2022-12-22T18:24:22.413Z,9.30
2022-12-22T18:26:51.221Z,9.30
2022-12-22T18:29:21.358Z,9.30
2022-12-22T18:31:50.063Z,9.30
2022-12-22T18:34:18.727Z,9.30
2022-12-22T18:36:47.931Z,9.30
2022-12-22T18:39:19.188Z,9.30
2022-12-22T18:41:48.344Z,9.30
2022-12-22T18:44:18.141Z,9.30
2022-12-22T18:46:48.843Z,9.30
2022-12-22T18:49:17.979Z,9.30
2022-12-22T18:51:47.404Z,9.30
2022-12-22T18:54:24.192Z,9.30
2022-12-22T18:56:53.194Z,9.30
2022-12-22T18:59:25.183Z,9.30
2022-12-22T19:02:01.968Z,9.30
2022-12-22T19:04:30.977Z,9.30
2022-12-22T19:06:59.763Z,9.30
2022-12-22T19:09:28.511Z,9.30
2022-12-22T19:11:57.176Z,9.20
2022-12-22T19:14:25.845Z,9.20
2022-12-22T19:16:56.189Z,9.20
2022-12-22T19:19:24.931Z,9.20
2022-12-22T19:21:54.370Z,9.10
2022-12-22T19:24:23.099Z,9.10
2022-12-22T19:26:51.765Z,9.10
2022-12-22T19:29:20.433Z,9.00
2022-12-22T19:31:49.234Z,9.00
2022-12-22T19:34:22.585Z,9.00
2022-12-22T19:36:51.567Z,9.00
2022-12-22T19:39:20.159Z,9.00
2022-12-22T19:41:51.403Z,9.00
2022-12-22T19:44:23.325Z,9.00
2022-12-22T19:46:52.809Z,9.00
2022-12-22T19:49:25.176Z,8.90
2022-12-22T19:51:54.248Z,8.90
2022-12-22T19:54:22.893Z,8.80
2022-12-22T19:56:54.043Z,8.70
2022-12-22T19:59:31.221Z,8.70
2022-12-22T20:02:16.993Z,8.60
2022-12-22T20:04:47.288Z,8.60
2022-12-22T20:07:18.130Z,8.50
2022-12-22T20:09:47.006Z,8.50
2022-12-22T20:12:23.994Z,8.40
2022-12-22T20:14:53.483Z,8.40
2022-12-22T20:17:22.447Z,8.40
2022-12-22T20:19:52.605Z,8.40
2022-12-22T20:22:24.180Z,8.40
2022-12-22T20:24:56.103Z,8.40
2022-12-22T20:27:28.550Z,8.40
2022-12-22T20:29:58.143Z,8.40
2022-12-22T20:32:28.294Z,8.50
2022-12-22T20:35:00.364Z,8.40
2022-12-22T20:37:32.294Z,8.50
2022-12-22T20:40:01.012Z,8.50
2022-12-22T20:42:29.509Z,8.50
2022-12-22T20:45:02.747Z,8.50
2022-12-22T20:47:33.685Z,8.60
2022-12-22T20:50:04.085Z,8.50
2022-12-22T20:52:33.056Z,8.60
2022-12-22T20:55:02.434Z,8.60
2022-12-22T20:57:31.102Z,8.60
2022-12-22T21:00:30.231Z,8.60
2022-12-22T21:03:00.128Z,8.60
2022-12-22T21:05:31.807Z,8.60
2022-12-22T21:08:00.552Z,8.60
2022-12-22T21:10:32.760Z,8.60
2022-12-22T21:13:01.617Z,8.60
2022-12-22T21:15:30.617Z,8.60
2022-12-22T21:18:01.559Z,8.60
2022-12-22T21:20:33.597Z,8.50
2022-12-22T21:23:02.269Z,8.60
2022-12-22T21:25:35.926Z,8.60
2022-12-22T21:28:04.804Z,8.60
2022-12-22T21:30:33.500Z,8.60
2022-12-22T21:33:07.748Z,8.50
2022-12-22T21:35:42.464Z,8.50
2022-12-22T21:38:22.240Z,8.50
2022-12-22T21:40:53.469Z,8.50
2022-12-22T21:43:22.589Z,8.50
2022-12-22T21:45:54.786Z,8.50
2022-12-22T21:48:25.014Z,8.50
2022-12-22T21:51:00.892Z,8.50
2022-12-22T21:53:29.727Z,8.50
2022-12-22T21:55:58.534Z,8.50
2022-12-22T21:58:27.288Z,8.50
2022-12-22T22:00:56.234Z,8.40
2022-12-22T22:03:25.158Z,8.40
2022-12-22T22:05:54.074Z,8.40
2022-12-22T22:08:25.294Z,8.40
2022-12-22T22:10:54.053Z,8.40
2022-12-22T22:13:22.970Z,8.30
2022-12-22T22:15:51.760Z,8.40
2022-12-22T22:18:21.803Z,8.40
2022-12-22T22:20:51.382Z,8.40
2022-12-22T22:23:20.638Z,8.40
2022-12-22T22:25:58.099Z,8.40
2022-12-22T22:28:27.239Z,8.40
2022-12-22T22:30:56.245Z,8.40
2022-12-22T22:33:25.011Z,8.40
2022-12-22T22:35:54.163Z,8.40
2022-12-22T22:38:23.467Z,8.40
2022-12-22T22:40:53.909Z,8.30
2022-12-22T22:43:22.611Z,8.40
2022-12-22T22:45:51.227Z,8.40
2022-12-22T22:48:21.784Z,8.30
2022-12-22T22:50:50.662Z,8.40
2022-12-22T22:53:20.098Z,8.30
2022-12-22T22:55:48.835Z,8.40
2022-12-22T22:58:18.983Z,8.30
2022-12-22T23:00:47.748Z,8.30
2022-12-22T23:03:16.850Z,8.30
2022-12-22T23:05:45.534Z,8.30
2022-12-22T23:08:14.300Z,8.30
2022-12-22T23:10:49.925Z,8.30
2022-12-22T23:13:20.237Z,8.30
2022-12-22T23:15:55.415Z,8.30
2022-12-22T23:18:24.182Z,8.30
2022-12-22T23:20:53.151Z,8.30
2022-12-22T23:23:21.884Z,8.30
2022-12-22T23:25:52.173Z,8.30
2022-12-22T23:28:22.815Z,8.30
2022-12-22T23:30:53.579Z,8.30
2022-12-22T23:33:22.522Z,8.30
2022-12-22T23:35:52.219Z,8.30
2022-12-22T23:38:22.353Z,8.20
2022-12-22T23:40:53.652Z,8.20
2022-12-22T23:43:24.886Z,8.20
2022-12-22T23:45:53.583Z,8.20
2022-12-22T23:48:22.246Z,8.20
2022-12-22T23:50:51.192Z,8.20
2022-12-22T23:53:20.084Z,8.20
2022-12-22T23:55:50.007Z,8.10
2022-12-22T23:58:19.352Z,8.10
